sensor_id;sensor_type;location;lat;lon;timestamp;pressure;altitude;pressure_sealevel;temperature;humidity
65872;BME280;52653;50.080;21.992;2023-05-10T00:01:35;99686.80;;;3.22;75.90
65872;BME280;52653;50.080;21.992;2023-05-10T00:04:27;99679.47;;;3.27;75.99
65872;BME280;52653;50.080;21.992;2023-05-10T00:07:20;99681.06;;;3.28;75.89
65872;BME280;52653;50.080;21.992;2023-05-10T00:10:04;99681.86;;;3.25;75.97
65872;BME280;52653;50.080;21.992;2023-05-10T00:12:57;99680.55;;;3.21;75.95
65872;BME280;52653;50.080;21.992;2023-05-10T00:15:50;99676.55;;;3.16;76.03
65872;BME280;52653;50.080;21.992;2023-05-10T00:18:33;99678.95;;;3.08;76.01
65872;BME280;52653;50.080;21.992;2023-05-10T00:21:26;99673.30;;;2.99;76.11
65872;BME280;52653;50.080;21.992;2023-05-10T00:24:13;99677.00;;;2.90;76.20
65872;BME280;52653;50.080;21.992;2023-05-10T00:26:59;99676.55;;;2.81;76.30
65872;BME280;52653;50.080;21.992;2023-05-10T00:29:51;99676.49;;;2.74;76.60
65872;BME280;52653;50.080;21.992;2023-05-10T00:32:44;99670.89;;;2.66;76.84
65872;BME280;52653;50.080;21.992;2023-05-10T00:35:39;99671.39;;;2.59;77.31
65872;BME280;52653;50.080;21.992;2023-05-10T00:38:32;99667.80;;;2.55;77.47
65872;BME280;52653;50.080;21.992;2023-05-10T00:41:25;99668.52;;;2.51;77.62
65872;BME280;52653;50.080;21.992;2023-05-10T00:44:18;99671.19;;;2.48;77.78
65872;BME280;52653;50.080;21.992;2023-05-10T00:47:11;99669.70;;;2.44;77.83
65872;BME280;52653;50.080;21.992;2023-05-10T00:50:04;99671.11;;;2.40;78.12
65872;BME280;52653;50.080;21.992;2023-05-10T00:52:59;99671.22;;;2.38;78.33
65872;BME280;52653;50.080;21.992;2023-05-10T00:55:44;99668.59;;;2.37;78.24
65872;BME280;52653;50.080;21.992;2023-05-10T00:58:37;99666.63;;;2.35;78.20
65872;BME280;52653;50.080;21.992;2023-05-10T01:01:24;99668.45;;;2.33;78.29
65872;BME280;52653;50.080;21.992;2023-05-10T01:04:17;99667.32;;;2.29;78.47
65872;BME280;52653;50.080;21.992;2023-05-10T01:07:04;99665.48;;;2.27;78.93
65872;BME280;52653;50.080;21.992;2023-05-10T01:09:44;99664.23;;;2.25;79.03
65872;BME280;52653;50.080;21.992;2023-05-10T01:12:40;99662.61;;;2.24;78.94
65872;BME280;52653;50.080;21.992;2023-05-10T01:15:35;99658.56;;;2.21;78.98
65872;BME280;52653;50.080;21.992;2023-05-10T01:18:23;99656.56;;;2.18;79.02
65872;BME280;52653;50.080;21.992;2023-05-10T01:21:21;99654.73;;;2.15;79.21
65872;BME280;52653;50.080;21.992;2023-05-10T01:28:12;99657.32;;;2.10;79.45
65872;BME280;52653;50.080;21.992;2023-05-10T01:31:21;99655.51;;;2.07;79.48
65872;BME280;52653;50.080;21.992;2023-05-10T01:34:19;99648.29;;;2.03;79.78
65872;BME280;52653;50.080;21.992;2023-05-10T01:37:23;99644.57;;;2.01;80.10
65872;BME280;52653;50.080;21.992;2023-05-10T01:40:23;99638.88;;;2.02;80.31
65872;BME280;52653;50.080;21.992;2023-05-10T01:43:21;99643.03;;;2.02;80.07
65872;BME280;52653;50.080;21.992;2023-05-10T01:46:19;99637.96;;;2.01;80.23
65872;BME280;52653;50.080;21.992;2023-05-10T01:49:20;99639.79;;;1.98;79.88
65872;BME280;52653;50.080;21.992;2023-05-10T01:52:18;99634.14;;;1.94;80.00
65872;BME280;52653;50.080;21.992;2023-05-10T01:55:15;99637.96;;;1.90;80.15
65872;BME280;52653;50.080;21.992;2023-05-10T01:58:09;99635.94;;;1.87;80.32
65872;BME280;52653;50.080;21.992;2023-05-10T02:00:52;99635.52;;;1.84;80.34
65872;BME280;52653;50.080;21.992;2023-05-10T02:03:39;99635.41;;;1.81;80.65
65872;BME280;52653;50.080;21.992;2023-05-10T02:06:25;99640.02;;;1.79;80.75
65872;BME280;52653;50.080;21.992;2023-05-10T02:08:58;99639.20;;;1.76;80.85
65872;BME280;52653;50.080;21.992;2023-05-10T02:11:52;99634.16;;;1.75;80.83
65872;BME280;52653;50.080;21.992;2023-05-10T02:14:46;99633.41;;;1.73;81.31
65872;BME280;52653;50.080;21.992;2023-05-10T02:17:40;99631.86;;;1.73;81.32
65872;BME280;52653;50.080;21.992;2023-05-10T02:20:35;99629.07;;;1.72;81.34
65872;BME280;52653;50.080;21.992;2023-05-10T02:23:29;99628.56;;;1.73;81.66
65872;BME280;52653;50.080;21.992;2023-05-10T02:26:12;99627.37;;;1.73;81.88
65872;BME280;52653;50.080;21.992;2023-05-10T02:29:08;99623.73;;;1.73;81.94
65872;BME280;52653;50.080;21.992;2023-05-10T02:31:58;99621.36;;;1.74;81.89
65872;BME280;52653;50.080;21.992;2023-05-10T02:34:53;99627.61;;;1.75;82.06
65872;BME280;52653;50.080;21.992;2023-05-10T02:37:48;99630.13;;;1.78;82.02
65872;BME280;52653;50.080;21.992;2023-05-10T02:40:44;99624.98;;;1.79;82.14
65872;BME280;52653;50.080;21.992;2023-05-10T02:43:37;99623.45;;;1.80;82.25
65872;BME280;52653;50.080;21.992;2023-05-10T02:46:32;99625.23;;;1.81;82.00
65872;BME280;52653;50.080;21.992;2023-05-10T02:49:25;99625.58;;;1.82;82.14
65872;BME280;52653;50.080;21.992;2023-05-10T02:52:10;99623.84;;;1.81;82.17
65872;BME280;52653;50.080;21.992;2023-05-10T02:55:06;99623.27;;;1.80;82.13
65872;BME280;52653;50.080;21.992;2023-05-10T02:58:02;99629.01;;;1.81;82.01
65872;BME280;52653;50.080;21.992;2023-05-10T03:00:55;99625.86;;;1.79;82.15
65872;BME280;52653;50.080;21.992;2023-05-10T03:03:51;99626.38;;;1.79;82.13
65872;BME280;52653;50.080;21.992;2023-05-10T03:06:44;99624.31;;;1.80;82.07
65872;BME280;52653;50.080;21.992;2023-05-10T03:09:37;99624.18;;;1.81;82.21
65872;BME280;52653;50.080;21.992;2023-05-10T03:12:41;99624.88;;;1.81;81.95
65872;BME280;52653;50.080;21.992;2023-05-10T03:15:45;99626.81;;;1.82;82.01
65872;BME280;52653;50.080;21.992;2023-05-10T03:18:44;99628.39;;;1.83;82.09
65872;BME280;52653;50.080;21.992;2023-05-10T03:21:39;99631.18;;;1.84;82.02
65872;BME280;52653;50.080;21.992;2023-05-10T03:24:35;99628.46;;;1.85;82.15
65872;BME280;52653;50.080;21.992;2023-05-10T03:27:32;99628.32;;;1.86;82.37
65872;BME280;52653;50.080;21.992;2023-05-10T03:30:18;99629.09;;;1.89;82.50
65872;BME280;52653;50.080;21.992;2023-05-10T03:33:13;99630.69;;;1.94;82.44
65872;BME280;52653;50.080;21.992;2023-05-10T03:36:06;99628.10;;;2.00;82.42
65872;BME280;52653;50.080;21.992;2023-05-10T03:39:00;99625.88;;;2.06;82.62
65872;BME280;52653;50.080;21.992;2023-05-10T03:41:53;99624.73;;;2.14;82.45
65872;BME280;52653;50.080;21.992;2023-05-10T03:44:46;99620.48;;;2.21;82.44
65872;BME280;52653;50.080;21.992;2023-05-10T03:47:22;99623.46;;;2.27;82.45
65872;BME280;52653;50.080;21.992;2023-05-10T03:50:17;99618.85;;;2.35;82.33
65872;BME280;52653;50.080;21.992;2023-05-10T03:53:10;99620.20;;;2.45;82.44
65872;BME280;52653;50.080;21.992;2023-05-10T03:56:04;99618.26;;;2.55;82.65
65872;BME280;52653;50.080;21.992;2023-05-10T03:58:57;99618.05;;;2.65;82.48
65872;BME280;52653;50.080;21.992;2023-05-10T04:01:50;99617.68;;;2.76;82.57
65872;BME280;52653;50.080;21.992;2023-05-10T04:04:43;99617.31;;;2.87;82.31
65872;BME280;52653;50.080;21.992;2023-05-10T04:07:37;99611.91;;;2.98;82.12
65872;BME280;52653;50.080;21.992;2023-05-10T04:10:30;99613.99;;;3.10;81.93
65872;BME280;52653;50.080;21.992;2023-05-10T04:13:26;99613.77;;;3.20;81.76
65872;BME280;52653;50.080;21.992;2023-05-10T04:16:18;99611.80;;;3.30;81.70
65872;BME280;52653;50.080;21.992;2023-05-10T04:19:13;99611.77;;;3.42;81.54
65872;BME280;52653;50.080;21.992;2023-05-10T04:22:06;99613.14;;;3.54;81.33
65872;BME280;52653;50.080;21.992;2023-05-10T04:24:59;99612.61;;;3.66;81.06
65872;BME280;52653;50.080;21.992;2023-05-10T04:27:51;99617.13;;;3.80;80.79
65872;BME280;52653;50.080;21.992;2023-05-10T04:30:37;99617.34;;;3.95;80.65
65872;BME280;52653;50.080;21.992;2023-05-10T04:33:30;99616.05;;;4.35;80.44
65872;BME280;52653;50.080;21.992;2023-05-10T04:36:22;99616.69;;;5.03;79.39
65872;BME280;52653;50.080;21.992;2023-05-10T04:39:01;99619.06;;;5.51;77.88
65872;BME280;52653;50.080;21.992;2023-05-10T04:41:54;99621.27;;;6.05;76.61
65872;BME280;52653;50.080;21.992;2023-05-10T04:44:47;99617.26;;;6.70;74.88
65872;BME280;52653;50.080;21.992;2023-05-10T04:47:40;99614.25;;;7.34;73.09
65872;BME280;52653;50.080;21.992;2023-05-10T04:50:18;99613.67;;;7.95;71.90
65872;BME280;52653;50.080;21.992;2023-05-10T04:53:12;99616.44;;;8.52;69.85
65872;BME280;52653;50.080;21.992;2023-05-10T04:56:07;99609.23;;;9.04;67.78
65872;BME280;52653;50.080;21.992;2023-05-10T04:59:00;99611.02;;;9.59;66.57
65872;BME280;52653;50.080;21.992;2023-05-10T05:01:38;99607.60;;;10.05;65.12
65872;BME280;52653;50.080;21.992;2023-05-10T05:04:32;99608.87;;;10.41;62.39
65872;BME280;52653;50.080;21.992;2023-05-10T05:07:25;99611.31;;;10.54;61.70
65872;BME280;52653;50.080;21.992;2023-05-10T05:10:18;99610.27;;;10.39;61.36
65872;BME280;52653;50.080;21.992;2023-05-10T05:13:02;99608.66;;;10.17;61.65
65872;BME280;52653;50.080;21.992;2023-05-10T05:15:55;99607.08;;;9.98;62.18
65872;BME280;52653;50.080;21.992;2023-05-10T05:18:48;99602.14;;;9.80;62.73
65872;BME280;52653;50.080;21.992;2023-05-10T05:21:41;99604.23;;;9.69;62.84
65872;BME280;52653;50.080;21.992;2023-05-10T05:24:17;99601.92;;;9.61;62.74
65872;BME280;52653;50.080;21.992;2023-05-10T05:27:10;99598.41;;;9.54;63.15
65872;BME280;52653;50.080;21.992;2023-05-10T05:30:04;99597.55;;;9.55;63.28
65872;BME280;52653;50.080;21.992;2023-05-10T05:32:57;99601.05;;;9.54;63.23
65872;BME280;52653;50.080;21.992;2023-05-10T05:35:50;99599.99;;;9.61;63.75
65872;BME280;52653;50.080;21.992;2023-05-10T05:38:32;99600.19;;;9.66;63.70
65872;BME280;52653;50.080;21.992;2023-05-10T05:41:25;99601.42;;;9.67;63.21
65872;BME280;52653;50.080;21.992;2023-05-10T05:44:10;99602.83;;;9.71;63.55
65872;BME280;52653;50.080;21.992;2023-05-10T05:47:05;99598.81;;;9.83;63.67
65872;BME280;52653;50.080;21.992;2023-05-10T05:49:57;99594.80;;;9.96;63.35
65872;BME280;52653;50.080;21.992;2023-05-10T05:52:50;99596.20;;;10.11;63.14
65872;BME280;52653;50.080;21.992;2023-05-10T05:56:03;99598.35;;;10.28;62.86
65872;BME280;52653;50.080;21.992;2023-05-10T05:58:56;99594.13;;;10.50;62.53
65872;BME280;52653;50.080;21.992;2023-05-10T06:01:49;99589.70;;;10.70;62.15
65872;BME280;52653;50.080;21.992;2023-05-10T06:04:46;99593.16;;;10.93;62.40
65872;BME280;52653;50.080;21.992;2023-05-10T06:07:41;99587.45;;;11.19;61.45
65872;BME280;52653;50.080;21.992;2023-05-10T06:10:35;99587.00;;;11.41;59.44
65872;BME280;52653;50.080;21.992;2023-05-10T06:13:29;99591.45;;;11.62;58.77
65872;BME280;52653;50.080;21.992;2023-05-10T06:16:09;99590.30;;;11.82;57.58
65872;BME280;52653;50.080;21.992;2023-05-10T06:19:02;99588.96;;;11.98;57.64
65872;BME280;52653;50.080;21.992;2023-05-10T06:21:56;99590.58;;;12.18;56.60
65872;BME280;52653;50.080;21.992;2023-05-10T06:24:31;99588.66;;;12.37;56.37
65872;BME280;52653;50.080;21.992;2023-05-10T06:27:07;99583.01;;;12.57;55.97
65872;BME280;52653;50.080;21.992;2023-05-10T06:29:49;99587.04;;;12.76;54.97
65872;BME280;52653;50.080;21.992;2023-05-10T06:32:34;99587.95;;;12.90;53.66
65872;BME280;52653;50.080;21.992;2023-05-10T06:35:29;99588.68;;;13.02;54.16
65872;BME280;52653;50.080;21.992;2023-05-10T06:38:22;99588.89;;;13.15;53.58
65872;BME280;52653;50.080;21.992;2023-05-10T06:41:15;99587.98;;;13.19;52.63
65872;BME280;52653;50.080;21.992;2023-05-10T06:44:08;99585.95;;;13.28;53.02
65872;BME280;52653;50.080;21.992;2023-05-10T06:47:02;99586.45;;;13.43;53.51
65872;BME280;52653;50.080;21.992;2023-05-10T06:49:55;99583.60;;;13.60;52.50
65872;BME280;52653;50.080;21.992;2023-05-10T06:52:38;99585.38;;;13.71;50.37
65872;BME280;52653;50.080;21.992;2023-05-10T06:55:22;99582.68;;;13.74;49.77
65872;BME280;52653;50.080;21.992;2023-05-10T06:57:57;99580.98;;;13.80;50.22
65872;BME280;52653;50.080;21.992;2023-05-10T07:00:43;99584.55;;;13.90;50.88
65872;BME280;52653;50.080;21.992;2023-05-10T07:03:26;99589.13;;;14.02;50.30
65872;BME280;52653;50.080;21.992;2023-05-10T07:06:19;99588.84;;;14.08;49.38
65872;BME280;52653;50.080;21.992;2023-05-10T07:09:24;99589.15;;;14.13;49.06
65872;BME280;52653;50.080;21.992;2023-05-10T07:12:17;99586.25;;;14.17;48.99
65872;BME280;52653;50.080;21.992;2023-05-10T07:15:11;99591.20;;;14.27;49.58
65872;BME280;52653;50.080;21.992;2023-05-10T07:18:05;99587.71;;;14.35;49.10
65872;BME280;52653;50.080;21.992;2023-05-10T07:20:58;99582.66;;;14.42;49.09
65872;BME280;52653;50.080;21.992;2023-05-10T07:23:42;99582.92;;;14.49;48.65
65872;BME280;52653;50.080;21.992;2023-05-10T07:26:35;99584.70;;;14.58;48.45
65872;BME280;52653;50.080;21.992;2023-05-10T07:29:28;99587.98;;;14.62;48.38
65872;BME280;52653;50.080;21.992;2023-05-10T07:32:21;99587.49;;;14.69;48.97
65872;BME280;52653;50.080;21.992;2023-05-10T07:35:15;99586.77;;;14.81;48.39
65872;BME280;52653;50.080;21.992;2023-05-10T07:37:48;99589.09;;;14.88;47.90
65872;BME280;52653;50.080;21.992;2023-05-10T07:40:31;99584.40;;;15.02;48.80
65872;BME280;52653;50.080;21.992;2023-05-10T07:43:16;99583.59;;;15.16;47.42
65872;BME280;52653;50.080;21.992;2023-05-10T07:46:00;99582.66;;;15.27;46.36
65872;BME280;52653;50.080;21.992;2023-05-10T07:48:55;99585.34;;;15.34;45.63
65872;BME280;52653;50.080;21.992;2023-05-10T07:51:48;99582.83;;;15.36;44.66
65872;BME280;52653;50.080;21.992;2023-05-10T07:54:41;99578.89;;;15.38;44.79
65872;BME280;52653;50.080;21.992;2023-05-10T07:57:34;99577.41;;;15.50;45.39
65872;BME280;52653;50.080;21.992;2023-05-10T08:00:20;99583.58;;;15.60;44.34
65872;BME280;52653;50.080;21.992;2023-05-10T08:02:58;99582.90;;;15.67;42.75
65872;BME280;52653;50.080;21.992;2023-05-10T08:05:31;99579.99;;;15.78;43.82
65872;BME280;52653;50.080;21.992;2023-05-10T08:08:25;99582.41;;;15.80;42.08
65872;BME280;52653;50.080;21.992;2023-05-10T08:11:19;99582.40;;;15.81;42.90
65872;BME280;52653;50.080;21.992;2023-05-10T08:14:12;99581.86;;;15.81;41.67
65872;BME280;52653;50.080;21.992;2023-05-10T08:17:25;99577.84;;;15.88;43.44
65872;BME280;52653;50.080;21.992;2023-05-10T08:20:18;99582.02;;;15.91;42.24
65872;BME280;52653;50.080;21.992;2023-05-10T08:23:15;99576.75;;;15.88;41.97
65872;BME280;52653;50.080;21.992;2023-05-10T08:26:08;99583.46;;;15.81;41.63
65872;BME280;52653;50.080;21.992;2023-05-10T08:29:02;99584.96;;;15.77;42.59
65872;BME280;52653;50.080;21.992;2023-05-10T08:31:55;99585.83;;;15.78;42.19
65872;BME280;52653;50.080;21.992;2023-05-10T08:34:50;99588.85;;;15.77;41.54
65872;BME280;52653;50.080;21.992;2023-05-10T08:37:42;99591.22;;;15.82;42.59
65872;BME280;52653;50.080;21.992;2023-05-10T08:40:36;99587.52;;;15.89;41.71
65872;BME280;52653;50.080;21.992;2023-05-10T08:43:30;99587.42;;;15.94;41.26
65872;BME280;52653;50.080;21.992;2023-05-10T08:46:25;99590.45;;;16.00;41.54
65872;BME280;52653;50.080;21.992;2023-05-10T08:49:20;99591.86;;;16.08;41.75
65872;BME280;52653;50.080;21.992;2023-05-10T08:52:06;99589.92;;;16.14;41.19
65872;BME280;52653;50.080;21.992;2023-05-10T08:55:00;99590.96;;;16.16;40.30
65872;BME280;52653;50.080;21.992;2023-05-10T08:57:55;99595.15;;;16.18;40.05
65872;BME280;52653;50.080;21.992;2023-05-10T09:00:48;99590.54;;;16.26;40.28
65872;BME280;52653;50.080;21.992;2023-05-10T09:03:42;99589.30;;;16.39;41.05
65872;BME280;52653;50.080;21.992;2023-05-10T09:06:36;99591.41;;;16.54;39.89
65872;BME280;52653;50.080;21.992;2023-05-10T09:09:29;99590.95;;;16.58;38.69
65872;BME280;52653;50.080;21.992;2023-05-10T09:12:02;99590.33;;;16.55;38.61
65872;BME280;52653;50.080;21.992;2023-05-10T09:14:49;99590.46;;;16.57;38.55
65872;BME280;52653;50.080;21.992;2023-05-10T09:17:27;99587.48;;;16.62;37.32
65872;BME280;52653;50.080;21.992;2023-05-10T09:20:20;99587.65;;;16.62;37.86
65872;BME280;52653;50.080;21.992;2023-05-10T09:23:14;99587.92;;;16.67;38.18
65872;BME280;52653;50.080;21.992;2023-05-10T09:26:07;99585.76;;;16.68;38.11
65872;BME280;52653;50.080;21.992;2023-05-10T09:29:02;99580.98;;;16.69;37.38
65872;BME280;52653;50.080;21.992;2023-05-10T09:31:56;99582.80;;;16.72;37.77
65872;BME280;52653;50.080;21.992;2023-05-10T09:34:50;99576.45;;;16.78;37.27
65872;BME280;52653;50.080;21.992;2023-05-10T09:37:47;99579.96;;;16.86;37.21
65872;BME280;52653;50.080;21.992;2023-05-10T09:40:40;99579.59;;;16.87;37.61
65872;BME280;52653;50.080;21.992;2023-05-10T09:43:46;99579.40;;;16.87;37.60
65872;BME280;52653;50.080;21.992;2023-05-10T09:46:38;99572.23;;;16.90;36.84
65872;BME280;52653;50.080;21.992;2023-05-10T09:49:21;99569.25;;;16.89;36.39
65872;BME280;52653;50.080;21.992;2023-05-10T09:52:14;99568.63;;;16.92;37.54
65872;BME280;52653;50.080;21.992;2023-05-10T09:54:57;99569.11;;;16.94;36.74
65872;BME280;52653;50.080;21.992;2023-05-10T09:57:30;99560.54;;;16.96;35.99
65872;BME280;52653;50.080;21.992;2023-05-10T10:00:10;99554.99;;;16.98;36.30
65872;BME280;52653;50.080;21.992;2023-05-10T10:02:43;99557.44;;;16.99;36.72
65872;BME280;52653;50.080;21.992;2023-05-10T10:05:31;99561.77;;;17.03;36.86
65872;BME280;52653;50.080;21.992;2023-05-10T10:08:04;99557.48;;;17.11;36.40
65872;BME280;52653;50.080;21.992;2023-05-10T10:10:38;99552.67;;;17.18;37.18
65872;BME280;52653;50.080;21.992;2023-05-10T10:13:32;99554.08;;;17.30;36.41
65872;BME280;52653;50.080;21.992;2023-05-10T10:16:09;99551.76;;;17.31;36.09
65872;BME280;52653;50.080;21.992;2023-05-10T10:18:44;99552.67;;;17.30;35.79
65872;BME280;52653;50.080;21.992;2023-05-10T10:21:21;99551.98;;;17.29;36.17
65872;BME280;52653;50.080;21.992;2023-05-10T10:23:54;99546.35;;;17.33;36.89
65872;BME280;52653;50.080;21.992;2023-05-10T10:26:30;99542.72;;;17.36;36.27
65872;BME280;52653;50.080;21.992;2023-05-10T10:29:12;99540.57;;;17.43;35.12
65872;BME280;52653;50.080;21.992;2023-05-10T10:31:55;99532.06;;;17.43;34.42
65872;BME280;52653;50.080;21.992;2023-05-10T10:34:30;99530.64;;;17.43;36.16
65872;BME280;52653;50.080;21.992;2023-05-10T10:37:07;99525.39;;;17.52;36.00
65872;BME280;52653;50.080;21.992;2023-05-10T10:39:40;99527.77;;;17.56;34.73
65872;BME280;52653;50.080;21.992;2023-05-10T10:42:15;99525.01;;;17.53;33.83
65872;BME280;52653;50.080;21.992;2023-05-10T10:45:17;99518.64;;;17.58;34.49
65872;BME280;52653;50.080;21.992;2023-05-10T10:48:24;99510.91;;;17.61;33.45
65872;BME280;52653;50.080;21.992;2023-05-10T10:51:18;99509.34;;;17.67;34.78
65872;BME280;52653;50.080;21.992;2023-05-10T10:54:10;99505.08;;;17.73;34.74
65872;BME280;52653;50.080;21.992;2023-05-10T10:57:14;99507.54;;;17.79;34.59
65872;BME280;52653;50.080;21.992;2023-05-10T11:00:27;99495.27;;;17.96;34.77
65872;BME280;52653;50.080;21.992;2023-05-10T11:03:22;99492.09;;;18.01;34.16
65872;BME280;52653;50.080;21.992;2023-05-10T11:06:30;99492.77;;;18.12;34.65
65872;BME280;52653;50.080;21.992;2023-05-10T11:09:25;99494.34;;;18.24;34.58
65872;BME280;52653;50.080;21.992;2023-05-10T11:12:19;99481.54;;;18.34;34.11
65872;BME280;52653;50.080;21.992;2023-05-10T11:15:12;99473.67;;;18.51;34.86
65872;BME280;52653;50.080;21.992;2023-05-10T11:18:19;99475.25;;;18.61;34.46
65872;BME280;52653;50.080;21.992;2023-05-10T11:21:10;99479.23;;;18.59;33.33
65872;BME280;52653;50.080;21.992;2023-05-10T11:24:09;99479.86;;;18.57;32.91
65872;BME280;52653;50.080;21.992;2023-05-10T11:27:10;99471.05;;;18.65;33.54
65872;BME280;52653;50.080;21.992;2023-05-10T11:30:08;99471.69;;;18.77;33.79
65872;BME280;52653;50.080;21.992;2023-05-10T11:32:55;99473.27;;;18.82;33.48
65872;BME280;52653;50.080;21.992;2023-05-10T11:35:48;99466.36;;;18.91;32.96
65872;BME280;52653;50.080;21.992;2023-05-10T11:38:42;99465.38;;;18.94;32.71
65872;BME280;52653;50.080;21.992;2023-05-10T11:41:34;99457.58;;;18.88;33.02
65872;BME280;52653;50.080;21.992;2023-05-10T11:44:30;99463.22;;;18.76;33.79
65872;BME280;52653;50.080;21.992;2023-05-10T11:47:23;99463.12;;;18.53;32.64
65872;BME280;52653;50.080;21.992;2023-05-10T11:50:17;99456.13;;;18.35;33.61
65872;BME280;52653;50.080;21.992;2023-05-10T11:53:00;99455.59;;;18.35;34.28
65872;BME280;52653;50.080;21.992;2023-05-10T11:55:53;99450.36;;;18.47;34.49
65872;BME280;52653;50.080;21.992;2023-05-10T11:58:40;99454.16;;;18.50;33.14
65872;BME280;52653;50.080;21.992;2023-05-10T12:01:33;99446.56;;;18.59;34.05
65872;BME280;52653;50.080;21.992;2023-05-10T12:04:27;99440.29;;;18.66;32.85
65872;BME280;52653;50.080;21.992;2023-05-10T12:07:20;99442.44;;;18.55;32.83
65872;BME280;52653;50.080;21.992;2023-05-10T12:10:15;99444.15;;;18.33;33.47
65872;BME280;52653;50.080;21.992;2023-05-10T12:13:13;99451.15;;;18.14;33.10
65872;BME280;52653;50.080;21.992;2023-05-10T12:16:16;99447.27;;;18.14;33.88
65872;BME280;52653;50.080;21.992;2023-05-10T12:19:09;99448.92;;;18.22;34.23
65872;BME280;52653;50.080;21.992;2023-05-10T12:22:06;99445.45;;;18.40;34.40
65872;BME280;52653;50.080;21.992;2023-05-10T12:24:59;99439.98;;;18.54;34.97
65872;BME280;52653;50.080;21.992;2023-05-10T12:27:35;99439.73;;;18.56;34.94
65872;BME280;52653;50.080;21.992;2023-05-10T12:30:30;99437.53;;;18.63;34.42
65872;BME280;52653;50.080;21.992;2023-05-10T12:33:07;99434.41;;;18.66;33.89
65872;BME280;52653;50.080;21.992;2023-05-10T12:36:01;99434.23;;;18.61;33.17
65872;BME280;52653;50.080;21.992;2023-05-10T12:39:17;99425.23;;;18.54;33.28
65872;BME280;52653;50.080;21.992;2023-05-10T12:42:10;99429.23;;;18.37;34.38
65872;BME280;52653;50.080;21.992;2023-05-10T12:44:57;99429.71;;;18.43;34.71
65872;BME280;52653;50.080;21.992;2023-05-10T12:47:51;99427.66;;;18.56;34.33
65872;BME280;52653;50.080;21.992;2023-05-10T12:50:44;99419.42;;;18.73;34.02
65872;BME280;52653;50.080;21.992;2023-05-10T12:53:37;99412.02;;;18.94;34.37
65872;BME280;52653;50.080;21.992;2023-05-10T12:56:33;99415.99;;;19.16;32.89
65872;BME280;52653;50.080;21.992;2023-05-10T12:59:26;99410.46;;;19.21;32.06
65872;BME280;52653;50.080;21.992;2023-05-10T13:02:19;99410.67;;;19.29;32.57
65872;BME280;52653;50.080;21.992;2023-05-10T13:05:13;99406.77;;;19.33;33.06
65872;BME280;52653;50.080;21.992;2023-05-10T13:08:07;99416.83;;;19.30;31.46
65872;BME280;52653;50.080;21.992;2023-05-10T13:11:02;99405.02;;;19.32;31.56
65872;BME280;52653;50.080;21.992;2023-05-10T13:13:56;99401.60;;;19.42;32.23
65872;BME280;52653;50.080;21.992;2023-05-10T13:16:49;99394.23;;;19.53;31.72
65872;BME280;52653;50.080;21.992;2023-05-10T13:19:45;99389.89;;;19.59;32.03
65872;BME280;52653;50.080;21.992;2023-05-10T13:22:38;99394.91;;;19.66;31.81
65872;BME280;52653;50.080;21.992;2023-05-10T13:25:32;99393.16;;;19.75;31.65
65872;BME280;52653;50.080;21.992;2023-05-10T13:28:26;99391.13;;;19.80;30.85
65872;BME280;52653;50.080;21.992;2023-05-10T13:31:19;99388.27;;;19.85;31.40
65872;BME280;52653;50.080;21.992;2023-05-10T13:34:14;99382.82;;;19.84;30.50
65872;BME280;52653;50.080;21.992;2023-05-10T13:37:06;99382.75;;;19.85;30.19
65872;BME280;52653;50.080;21.992;2023-05-10T13:40:02;99379.39;;;19.84;30.24
65872;BME280;52653;50.080;21.992;2023-05-10T13:42:55;99375.61;;;19.89;30.19
65872;BME280;52653;50.080;21.992;2023-05-10T13:45:49;99376.55;;;19.88;29.88
65872;BME280;52653;50.080;21.992;2023-05-10T13:48:33;99376.19;;;19.72;29.67
65872;BME280;52653;50.080;21.992;2023-05-10T13:51:29;99373.01;;;19.63;31.21
65872;BME280;52653;50.080;21.992;2023-05-10T13:54:23;99370.02;;;19.54;30.72
65872;BME280;52653;50.080;21.992;2023-05-10T13:57:09;99365.36;;;19.40;29.94
65872;BME280;52653;50.080;21.992;2023-05-10T14:00:05;99364.04;;;19.42;30.76
65872;BME280;52653;50.080;21.992;2023-05-10T14:02:50;99358.02;;;19.42;30.26
65872;BME280;52653;50.080;21.992;2023-05-10T14:05:34;99362.28;;;19.47;30.12
65872;BME280;52653;50.080;21.992;2023-05-10T14:08:09;99361.40;;;19.41;30.25
65872;BME280;52653;50.080;21.992;2023-05-10T14:11:02;99357.83;;;19.38;30.47
65872;BME280;52653;50.080;21.992;2023-05-10T14:13:55;99356.67;;;19.31;29.94
65872;BME280;52653;50.080;21.992;2023-05-10T14:16:48;99351.63;;;19.20;29.85
65872;BME280;52653;50.080;21.992;2023-05-10T14:19:41;99350.71;;;19.16;30.82
65872;BME280;52653;50.080;21.992;2023-05-10T14:22:35;99348.80;;;19.15;30.34
65872;BME280;52653;50.080;21.992;2023-05-10T14:25:18;99351.64;;;19.06;29.62
65872;BME280;52653;50.080;21.992;2023-05-10T14:28:11;99345.13;;;19.04;30.27
65872;BME280;52653;50.080;21.992;2023-05-10T14:30:48;99343.39;;;19.08;30.44
65872;BME280;52653;50.080;21.992;2023-05-10T14:33:40;99346.00;;;19.14;30.34
65872;BME280;52653;50.080;21.992;2023-05-10T14:36:25;99346.42;;;19.12;29.22
65872;BME280;52653;50.080;21.992;2023-05-10T14:39:18;99346.55;;;19.13;30.23
65872;BME280;52653;50.080;21.992;2023-05-10T14:42:13;99346.48;;;19.06;29.64
65872;BME280;52653;50.080;21.992;2023-05-10T14:44:55;99348.13;;;18.92;29.90
65872;BME280;52653;50.080;21.992;2023-05-10T14:47:49;99351.61;;;18.85;29.63
65872;BME280;52653;50.080;21.992;2023-05-10T14:50:32;99350.54;;;18.80;29.54
65872;BME280;52653;50.080;21.992;2023-05-10T14:53:07;99355.61;;;18.77;29.78
65872;BME280;52653;50.080;21.992;2023-05-10T14:55:40;99356.36;;;18.67;30.17
65872;BME280;52653;50.080;21.992;2023-05-10T14:58:15;99354.22;;;18.62;30.00
65872;BME280;52653;50.080;21.992;2023-05-10T15:00:48;99352.58;;;18.69;30.35